createdAt,value
2019-03-23T00:00:32.316Z,10.10
2019-03-23T00:01:32.306Z,10.01
2019-03-23T00:02:32.296Z,9.97
2019-03-23T00:03:32.287Z,9.89
2019-03-23T00:04:32.277Z,9.87
2019-03-23T00:05:32.267Z,9.82
2019-03-23T00:06:32.259Z,9.76
2019-03-23T00:07:32.249Z,9.62
2019-03-23T00:08:32.238Z,9.65
2019-03-23T00:09:32.227Z,9.62
2019-03-23T00:10:32.258Z,9.56
2019-03-23T00:11:32.209Z,9.56
2019-03-23T00:12:32.199Z,9.58
2019-03-23T00:13:32.188Z,9.54
2019-03-23T00:14:32.178Z,9.51
2019-03-23T00:15:32.168Z,9.39
2019-03-23T00:16:32.159Z,9.43
2019-03-23T00:17:32.148Z,9.31
2019-03-23T00:18:32.138Z,9.26
2019-03-23T00:19:32.130Z,9.28
2019-03-23T00:20:32.119Z,9.25
2019-03-23T00:21:32.109Z,9.22
2019-03-23T00:22:32.099Z,9.19
2019-03-23T00:23:32.089Z,9.18
2019-03-23T00:24:32.079Z,9.08
2019-03-23T00:25:32.068Z,9.00
2019-03-23T00:26:32.058Z,8.94
2019-03-23T00:27:32.049Z,8.95
2019-03-23T00:28:32.040Z,8.94
2019-03-23T00:29:32.028Z,8.92
2019-03-23T00:30:32.018Z,8.89
2019-03-23T00:31:32.010Z,8.81
2019-03-23T00:32:31.999Z,8.82
2019-03-23T00:33:32.025Z,8.76
2019-03-23T00:34:31.978Z,8.69
2019-03-23T00:35:31.971Z,8.67
2019-03-23T00:36:41.021Z,8.63
2019-03-23T00:37:31.947Z,8.56
2019-03-23T00:38:31.938Z,8.56
2019-03-23T00:39:31.928Z,8.52
2019-03-23T00:40:31.918Z,8.42
2019-03-23T00:41:31.907Z,8.33
2019-03-23T00:42:31.897Z,8.30
2019-03-23T00:43:31.887Z,8.30
2019-03-23T00:44:31.878Z,8.28
2019-03-23T00:45:31.867Z,8.20
2019-03-23T00:46:31.858Z,8.19
2019-03-23T00:47:31.847Z,8.20
2019-03-23T00:48:31.843Z,8.18
2019-03-23T00:49:31.826Z,8.16
2019-03-23T00:50:31.816Z,8.20
2019-03-23T00:51:31.806Z,8.13
2019-03-23T00:52:31.796Z,8.19
2019-03-23T00:53:31.786Z,8.18
2019-03-23T00:54:31.775Z,8.09
2019-03-23T00:55:31.764Z,8.12
2019-03-23T00:56:31.754Z,8.10
2019-03-23T00:57:31.744Z,8.13
2019-03-23T00:58:31.735Z,8.19
2019-03-23T00:59:31.723Z,8.26
2019-03-23T01:00:31.714Z,8.23
2019-03-23T01:01:31.702Z,8.23
2019-03-23T01:02:31.694Z,8.15
2019-03-23T01:03:31.683Z,8.15
2019-03-23T01:04:31.675Z,8.15
2019-03-23T01:05:31.672Z,8.08
2019-03-23T01:06:31.651Z,8.18
2019-03-23T01:07:31.647Z,8.00
2019-03-23T01:08:31.633Z,8.01
2019-03-23T01:09:31.620Z,8.03
2019-03-23T01:10:31.613Z,8.00
2019-03-23T01:11:31.602Z,7.98
2019-03-23T01:12:31.589Z,8.01
2019-03-23T01:13:31.579Z,7.97
2019-03-23T01:14:31.568Z,7.93
2019-03-23T01:15:31.557Z,7.91
2019-03-23T01:16:31.550Z,7.97
2019-03-23T01:17:31.536Z,7.91
2019-03-23T01:18:31.526Z,7.79
2019-03-23T01:19:31.515Z,7.87
2019-03-23T01:20:31.506Z,7.88
2019-03-23T01:21:31.496Z,7.75
2019-03-23T01:22:31.485Z,7.76
2019-03-23T01:23:31.483Z,7.79
2019-03-23T01:24:31.466Z,7.83
2019-03-23T01:25:31.455Z,7.69
2019-03-23T01:26:31.443Z,7.75
2019-03-23T01:27:31.432Z,7.70
2019-03-23T01:28:31.422Z,7.70
2019-03-23T01:29:31.427Z,7.61
2019-03-23T01:30:31.400Z,7.63
2019-03-23T01:31:31.391Z,7.82
2019-03-23T01:32:31.381Z,7.80
2019-03-23T01:33:31.371Z,7.80
2019-03-23T01:34:31.358Z,7.91
2019-03-23T01:35:31.348Z,8.05
2019-03-23T01:36:31.338Z,8.00
2019-03-23T01:37:31.325Z,8.01
2019-03-23T01:38:31.319Z,8.03
2019-03-23T01:39:31.305Z,8.13
2019-03-23T01:40:31.293Z,8.12
2019-03-23T01:41:31.284Z,8.09
2019-03-23T01:42:31.273Z,8.03
2019-03-23T01:43:31.268Z,8.06
2019-03-23T01:44:31.250Z,8.06
2019-03-23T01:45:31.238Z,7.91
2019-03-23T01:46:31.227Z,7.93
2019-03-23T01:47:31.218Z,7.94
2019-03-23T01:48:31.206Z,7.88
2019-03-23T01:49:31.200Z,7.79
2019-03-23T01:50:31.183Z,7.63
2019-03-23T01:51:31.172Z,7.66
2019-03-23T01:52:31.161Z,7.54
2019-03-23T01:53:31.149Z,7.57
2019-03-23T01:54:31.138Z,7.47
2019-03-23T01:55:31.128Z,7.53
2019-03-23T01:56:31.116Z,7.40
2019-03-23T01:57:31.104Z,7.38
2019-03-23T01:58:31.094Z,7.35
2019-03-23T01:59:31.082Z,7.35
2019-03-23T02:00:31.072Z,7.35
2019-03-23T02:01:31.058Z,7.31
2019-03-23T02:02:31.051Z,7.25
2019-03-23T02:03:31.037Z,7.23
2019-03-23T02:04:31.026Z,7.29
2019-03-23T02:05:31.014Z,7.32
2019-03-23T02:06:31.003Z,7.29
2019-03-23T02:07:30.991Z,7.23
2019-03-23T02:08:30.980Z,7.20
2019-03-23T02:09:30.969Z,7.11
2019-03-23T02:10:30.958Z,7.15
2019-03-23T02:11:30.946Z,7.18
2019-03-23T02:12:30.935Z,7.21
2019-03-23T02:13:30.926Z,7.18
2019-03-23T02:14:30.911Z,7.18
2019-03-23T02:15:30.902Z,7.20
2019-03-23T02:16:30.889Z,7.21
2019-03-23T02:17:30.877Z,7.21
2019-03-23T02:18:30.868Z,7.21
2019-03-23T02:19:30.859Z,7.24
2019-03-23T02:20:30.843Z,7.24
2019-03-23T02:21:30.831Z,7.21
2019-03-23T02:22:30.820Z,7.21
2019-03-23T02:23:30.809Z,7.25
2019-03-23T02:24:30.797Z,7.21
2019-03-23T02:25:30.785Z,7.20
2019-03-23T02:26:30.776Z,7.18
2019-03-23T02:27:30.763Z,7.23
2019-03-23T02:28:30.753Z,7.31
2019-03-23T02:29:30.740Z,7.21
2019-03-23T02:30:30.737Z,7.18
2019-03-23T02:31:30.721Z,7.21
2019-03-23T02:32:30.707Z,7.20
2019-03-23T02:33:30.697Z,7.24
2019-03-23T02:34:30.683Z,7.20
2019-03-23T02:35:30.671Z,7.21
2019-03-23T02:36:30.663Z,7.20
2019-03-23T02:37:30.649Z,7.25
2019-03-23T02:38:30.638Z,7.21
2019-03-23T02:39:30.634Z,7.20
2019-03-23T02:40:30.614Z,7.21
2019-03-23T02:41:30.605Z,7.31
2019-03-23T02:42:30.593Z,7.25
2019-03-23T02:43:30.583Z,7.29
2019-03-23T02:44:30.570Z,7.33
2019-03-23T02:45:30.743Z,7.32
2019-03-23T02:46:30.547Z,7.39
2019-03-23T02:47:30.540Z,7.38
2019-03-23T02:48:30.525Z,7.40
2019-03-23T02:49:30.512Z,7.35
2019-03-23T02:50:30.502Z,7.40
2019-03-23T02:51:30.490Z,7.38
2019-03-23T02:52:30.480Z,7.45
2019-03-23T02:53:30.468Z,7.47
2019-03-23T02:54:30.457Z,7.47
2019-03-23T02:55:30.447Z,7.50
2019-03-23T02:56:30.435Z,7.47
2019-03-23T02:57:30.423Z,7.43
2019-03-23T02:58:30.411Z,7.36
2019-03-23T02:59:30.400Z,7.48
2019-03-23T03:00:30.390Z,7.47
2019-03-23T03:01:30.378Z,7.47
2019-03-23T03:02:30.366Z,7.48
2019-03-23T03:03:30.356Z,7.39
2019-03-23T03:04:30.344Z,7.42
2019-03-23T03:05:30.335Z,7.48
2019-03-23T03:06:30.321Z,7.48
2019-03-23T03:07:40.965Z,7.45
2019-03-23T03:08:30.299Z,7.48
2019-03-23T03:09:30.291Z,7.45
2019-03-23T03:10:30.277Z,7.39
2019-03-23T03:11:30.267Z,7.42
2019-03-23T03:12:30.264Z,7.47
2019-03-23T03:13:30.243Z,7.36
2019-03-23T03:14:30.233Z,7.39
2019-03-23T03:15:30.220Z,7.35
2019-03-23T03:16:30.211Z,7.33
2019-03-23T03:17:30.198Z,7.31
2019-03-23T03:18:30.188Z,7.25
2019-03-23T03:19:30.175Z,7.32
2019-03-23T03:20:30.165Z,7.39
2019-03-23T03:21:30.153Z,7.32
2019-03-23T03:22:30.142Z,7.39
2019-03-23T03:23:30.132Z,7.38
2019-03-23T03:24:30.120Z,7.33
2019-03-23T03:25:30.107Z,7.36
2019-03-23T03:26:30.100Z,7.32
2019-03-23T03:27:30.089Z,7.39
2019-03-23T03:28:30.076Z,7.33
2019-03-23T03:29:30.063Z,7.47
2019-03-23T03:30:30.083Z,7.39
2019-03-23T03:31:30.070Z,7.42
2019-03-23T03:32:30.038Z,7.40
2019-03-23T03:33:30.027Z,7.43
2019-03-23T03:34:30.011Z,7.39
2019-03-23T03:35:30.002Z,7.39
2019-03-23T03:36:30.311Z,7.45
2019-03-23T03:37:29.975Z,7.45
2019-03-23T03:38:29.963Z,7.48
2019-03-23T03:39:29.954Z,7.36
2019-03-23T03:40:29.943Z,7.45
2019-03-23T03:41:29.931Z,7.45
2019-03-23T03:42:29.920Z,7.47
2019-03-23T03:43:29.909Z,7.47
2019-03-23T03:44:29.898Z,7.45
2019-03-23T03:45:29.894Z,7.47
2019-03-23T03:46:29.875Z,7.48
2019-03-23T03:47:29.872Z,7.48
2019-03-23T03:48:29.855Z,7.45
2019-03-23T03:49:29.843Z,7.38
2019-03-23T03:50:29.842Z,7.35
2019-03-23T03:51:29.825Z,7.36
2019-03-23T03:52:29.817Z,7.43
2019-03-23T03:53:29.798Z,7.39
2019-03-23T03:54:29.787Z,7.38
2019-03-23T03:55:29.777Z,7.33
2019-03-23T03:56:29.768Z,7.39
2019-03-23T03:57:29.754Z,7.35
2019-03-23T03:58:29.742Z,7.35
2019-03-23T03:59:29.732Z,7.38
2019-03-23T04:00:29.722Z,7.36
2019-03-23T04:01:29.711Z,7.35
2019-03-23T04:02:29.698Z,7.36
2019-03-23T04:03:29.687Z,7.43
2019-03-23T04:04:29.677Z,7.38
2019-03-23T04:05:29.665Z,7.40
2019-03-23T04:06:29.652Z,7.40
2019-03-23T04:07:29.643Z,7.43
2019-03-23T04:08:29.634Z,7.45
2019-03-23T04:09:29.620Z,7.48
2019-03-23T04:10:29.608Z,7.42
2019-03-23T04:11:29.598Z,7.48
2019-03-23T04:12:29.587Z,7.38
2019-03-23T04:13:29.574Z,7.38
2019-03-23T04:14:29.565Z,7.39
2019-03-23T04:15:29.553Z,7.39
2019-03-23T04:16:29.553Z,7.33
2019-03-23T04:17:29.533Z,7.23
2019-03-23T04:18:29.540Z,7.25
2019-03-23T04:19:29.515Z,7.24
2019-03-23T04:20:29.499Z,7.28
2019-03-23T04:21:29.487Z,7.24
2019-03-23T04:22:29.475Z,7.28
2019-03-23T04:23:29.468Z,7.32
2019-03-23T04:24:29.454Z,7.28
2019-03-23T04:25:29.442Z,7.24
2019-03-23T04:26:29.430Z,7.32
2019-03-23T04:27:29.432Z,7.35
2019-03-23T04:28:29.409Z,7.35
2019-03-23T04:29:29.402Z,7.32
2019-03-23T04:30:29.387Z,7.40
2019-03-23T04:31:29.374Z,7.39
2019-03-23T04:32:29.362Z,7.38
2019-03-23T04:33:29.355Z,7.38
2019-03-23T04:34:29.340Z,7.38
2019-03-23T04:35:29.329Z,7.38
2019-03-23T04:36:29.323Z,7.36
2019-03-23T04:37:29.309Z,7.36
2019-03-23T04:38:29.296Z,7.39
2019-03-23T04:39:29.284Z,7.36
2019-03-23T04:40:29.272Z,7.33
2019-03-23T04:41:29.268Z,7.40
2019-03-23T04:42:29.249Z,7.36
2019-03-23T04:43:29.237Z,7.43
2019-03-23T04:44:29.227Z,7.38
2019-03-23T04:45:29.214Z,7.35
2019-03-23T04:46:29.205Z,7.35
2019-03-23T04:47:29.193Z,7.40
2019-03-23T04:48:29.182Z,7.35
2019-03-23T04:49:29.211Z,7.35
2019-03-23T04:50:29.159Z,7.42
2019-03-23T04:51:29.148Z,7.36
2019-03-23T04:52:29.140Z,7.39
2019-03-23T04:53:29.125Z,7.39
2019-03-23T04:54:29.115Z,7.39
2019-03-23T04:55:29.103Z,7.48
2019-03-23T04:56:29.092Z,7.53
2019-03-23T04:57:29.082Z,7.50
2019-03-23T04:58:29.070Z,7.54
2019-03-23T04:59:29.058Z,7.47
2019-03-23T05:00:29.048Z,7.51
2019-03-23T05:01:29.037Z,7.57
2019-03-23T05:02:29.026Z,7.57
2019-03-23T05:03:29.017Z,7.48
2019-03-23T05:04:29.006Z,7.42
2019-03-23T05:05:28.992Z,7.43
2019-03-23T05:06:28.981Z,7.48
2019-03-23T05:07:28.970Z,7.51
2019-03-23T05:08:33.387Z,7.45
2019-03-23T05:09:28.948Z,7.40
2019-03-23T05:10:28.936Z,7.57
2019-03-23T05:11:28.926Z,7.57
2019-03-23T05:12:28.915Z,7.53
2019-03-23T05:13:28.903Z,7.56
2019-03-23T05:14:28.892Z,7.53
2019-03-23T05:15:28.883Z,7.48
2019-03-23T05:16:28.871Z,7.54
2019-03-23T05:17:28.861Z,7.54
2019-03-23T05:18:28.847Z,7.50
2019-03-23T05:19:28.836Z,7.56
2019-03-23T05:20:28.826Z,7.56
2019-03-23T05:21:28.815Z,7.53
2019-03-23T05:22:28.802Z,7.50
2019-03-23T05:23:28.791Z,7.38
2019-03-23T05:24:28.781Z,7.51
2019-03-23T05:25:28.768Z,7.57
2019-03-23T05:26:28.757Z,7.54
2019-03-23T05:27:28.746Z,7.58
2019-03-23T05:28:28.736Z,7.56
2019-03-23T05:29:28.723Z,7.48
2019-03-23T05:30:28.712Z,7.54
2019-03-23T05:31:28.706Z,7.50
2019-03-23T05:32:28.691Z,7.56
2019-03-23T05:33:28.678Z,7.53
2019-03-23T05:34:28.668Z,7.56
2019-03-23T05:35:28.657Z,7.58
2019-03-23T05:36:28.645Z,7.56
2019-03-23T05:37:28.636Z,7.63
2019-03-23T05:38:28.623Z,7.61
2019-03-23T05:39:28.614Z,7.61
2019-03-23T05:40:28.603Z,7.73
2019-03-23T05:41:30.804Z,7.56
2019-03-23T05:42:28.578Z,7.61
2019-03-23T05:43:28.566Z,7.67
2019-03-23T05:44:28.559Z,7.67
2019-03-23T05:45:28.544Z,7.67
2019-03-23T05:46:28.534Z,7.67
2019-03-23T05:47:28.525Z,7.69
2019-03-23T05:48:28.512Z,7.61
2019-03-23T05:49:28.499Z,7.69
2019-03-23T05:50:28.489Z,7.61
2019-03-23T05:51:28.477Z,7.69
2019-03-23T05:52:28.466Z,7.70
2019-03-23T05:53:28.455Z,7.72
2019-03-23T05:54:28.445Z,7.79
2019-03-23T05:55:28.433Z,7.67
2019-03-23T05:56:28.425Z,7.79
2019-03-23T05:57:28.410Z,7.82
2019-03-23T05:58:28.401Z,7.82
2019-03-23T05:59:28.392Z,7.76
2019-03-23T06:00:28.379Z,7.79
2019-03-23T06:01:28.367Z,7.79
2019-03-23T06:02:28.357Z,7.91
2019-03-23T06:03:28.348Z,7.79
2019-03-23T06:04:28.335Z,7.75
2019-03-23T06:05:28.325Z,7.85
2019-03-23T06:06:28.313Z,7.76
2019-03-23T06:07:28.303Z,7.85
2019-03-23T06:08:28.291Z,7.85
2019-03-23T06:09:28.280Z,7.83
2019-03-23T06:10:28.272Z,7.82
2019-03-23T06:11:28.258Z,7.82
2019-03-23T06:12:28.248Z,7.82
2019-03-23T06:13:28.236Z,7.82
2019-03-23T06:14:28.226Z,7.80
2019-03-23T06:15:28.215Z,7.88
2019-03-23T06:16:28.204Z,7.88
2019-03-23T06:17:28.193Z,7.83
2019-03-23T06:18:28.181Z,7.87
2019-03-23T06:19:28.173Z,7.90
2019-03-23T06:20:28.160Z,7.95
2019-03-23T06:21:28.150Z,7.93
2019-03-23T06:22:28.140Z,7.91
2019-03-23T06:23:28.127Z,7.91
2019-03-23T06:24:28.117Z,7.91
2019-03-23T06:25:28.105Z,7.94
2019-03-23T06:26:28.095Z,7.94
2019-03-23T06:27:28.083Z,8.05
2019-03-23T06:28:28.073Z,7.93
2019-03-23T06:29:28.061Z,7.98
2019-03-23T06:30:28.050Z,7.97
2019-03-23T06:31:28.041Z,7.95
2019-03-23T06:32:28.029Z,8.00
2019-03-23T06:33:28.017Z,8.05
2019-03-23T06:34:28.007Z,7.98
2019-03-23T06:35:27.996Z,8.16
2019-03-23T06:36:27.985Z,8.13
2019-03-23T06:37:27.974Z,8.12
2019-03-23T06:38:27.963Z,8.12
2019-03-23T06:39:27.952Z,8.13
2019-03-23T06:40:27.942Z,8.19
2019-03-23T06:41:27.930Z,8.19
2019-03-23T06:42:27.925Z,8.16
2019-03-23T06:43:27.910Z,8.18
2019-03-23T06:44:27.900Z,8.19
2019-03-23T06:45:27.889Z,8.19
2019-03-23T06:46:27.878Z,8.26
2019-03-23T06:47:27.867Z,8.19
2019-03-23T06:48:27.857Z,8.20
2019-03-23T06:49:27.847Z,8.23
2019-03-23T06:50:27.838Z,8.34
2019-03-23T06:51:27.825Z,8.26
2019-03-23T06:52:27.820Z,8.23
2019-03-23T06:53:27.803Z,8.33
2019-03-23T06:54:27.793Z,8.26
2019-03-23T06:55:27.783Z,8.33
2019-03-23T06:56:27.773Z,8.24
2019-03-23T06:57:27.762Z,8.30
2019-03-23T06:58:27.752Z,8.31
2019-03-23T06:59:27.743Z,8.38
2019-03-23T07:00:27.732Z,8.36
2019-03-23T07:01:27.721Z,8.42
2019-03-23T07:02:27.712Z,8.36
2019-03-23T07:03:27.700Z,8.42
2019-03-23T07:04:27.691Z,8.42
2019-03-23T07:05:27.679Z,8.42
2019-03-23T07:06:27.670Z,8.37
2019-03-23T07:07:27.659Z,8.31
2019-03-23T07:08:32.031Z,8.36
2019-03-23T07:09:27.639Z,8.37
2019-03-23T07:10:27.629Z,8.33
2019-03-23T07:11:27.620Z,8.37
2019-03-23T07:12:27.617Z,8.42
2019-03-23T07:13:27.597Z,8.38
2019-03-23T07:14:27.594Z,8.42
2019-03-23T07:15:27.577Z,8.44
2019-03-23T07:16:27.567Z,8.49
2019-03-23T07:17:27.557Z,8.49
2019-03-23T07:18:27.546Z,8.56
2019-03-23T07:19:27.537Z,8.63
2019-03-23T07:20:27.527Z,8.74
2019-03-23T07:21:27.525Z,8.70
2019-03-23T07:22:27.509Z,8.64
2019-03-23T07:23:27.497Z,8.67
2019-03-23T07:24:27.487Z,8.63
2019-03-23T07:25:27.476Z,8.66
2019-03-23T07:26:27.465Z,8.61
2019-03-23T07:27:27.457Z,8.60
2019-03-23T07:28:27.446Z,8.64
2019-03-23T07:29:27.436Z,8.67
2019-03-23T07:30:27.426Z,8.73
2019-03-23T07:31:27.416Z,8.73
2019-03-23T07:32:27.406Z,8.81
2019-03-23T07:33:27.395Z,8.82
2019-03-23T07:34:27.385Z,8.78
2019-03-23T07:35:27.376Z,8.74
2019-03-23T07:36:27.366Z,8.70
2019-03-23T07:37:27.355Z,8.79
2019-03-23T07:38:27.350Z,8.74
2019-03-23T07:39:30.351Z,8.89
2019-03-23T07:40:27.326Z,8.89
2019-03-23T07:41:27.315Z,8.79
2019-03-23T07:42:27.306Z,8.79
2019-03-23T07:43:27.297Z,8.88
2019-03-23T07:44:27.290Z,8.88
2019-03-23T07:45:27.276Z,8.94
2019-03-23T07:46:27.267Z,8.91
2019-03-23T07:47:27.257Z,8.97
2019-03-23T07:48:28.580Z,8.95
2019-03-23T07:49:27.237Z,8.99
2019-03-23T07:50:27.227Z,9.14
2019-03-23T07:51:27.218Z,9.11
2019-03-23T07:52:27.208Z,9.28
2019-03-23T07:53:27.201Z,9.28
2019-03-23T07:54:27.188Z,9.34
2019-03-23T07:55:27.179Z,9.37
2019-03-23T07:56:27.170Z,9.28
2019-03-23T07:57:27.160Z,9.36
2019-03-23T07:58:27.150Z,9.28
2019-03-23T07:59:27.181Z,9.28
2019-03-23T08:00:27.131Z,9.22
2019-03-23T08:01:27.122Z,9.23
2019-03-23T08:02:27.112Z,9.26
2019-03-23T08:03:27.103Z,9.28
2019-03-23T08:04:27.093Z,9.19
2019-03-23T08:05:27.083Z,9.08
2019-03-23T08:06:27.076Z,9.10
2019-03-23T08:07:27.064Z,9.19
2019-03-23T08:08:27.055Z,9.16
2019-03-23T08:09:37.166Z,9.08
2019-03-23T08:10:27.035Z,9.13
2019-03-23T08:11:27.026Z,9.23
2019-03-23T08:12:27.016Z,9.19
2019-03-23T08:13:27.093Z,9.22
2019-03-23T08:14:26.996Z,9.18
2019-03-23T08:15:27.005Z,9.34
2019-03-23T08:16:26.978Z,9.44
2019-03-23T08:17:26.970Z,9.39
2019-03-23T08:18:26.960Z,9.39
2019-03-23T08:19:26.948Z,9.43
2019-03-23T08:20:26.942Z,9.29
2019-03-23T08:21:26.930Z,9.29
2019-03-23T08:22:26.920Z,9.28
2019-03-23T08:23:26.910Z,9.26
2019-03-23T08:24:26.903Z,9.21
2019-03-23T08:25:26.891Z,9.22
2019-03-23T08:26:26.880Z,9.28
2019-03-23T08:27:26.875Z,9.31
2019-03-23T08:28:26.862Z,9.29
2019-03-23T08:29:26.852Z,9.28
2019-03-23T08:30:26.842Z,9.37
2019-03-23T08:31:26.833Z,9.39
2019-03-23T08:32:26.824Z,9.39
2019-03-23T08:33:26.818Z,9.39
2019-03-23T08:34:26.806Z,9.61
2019-03-23T08:35:26.801Z,9.56
2019-03-23T08:36:26.795Z,9.62
2019-03-23T08:37:26.777Z,9.65
2019-03-23T08:38:26.768Z,9.65
2019-03-23T08:39:26.756Z,9.64
2019-03-23T08:40:26.747Z,9.61
2019-03-23T08:41:26.739Z,9.62
2019-03-23T08:42:26.728Z,9.74
2019-03-23T08:43:26.718Z,9.79
2019-03-23T08:44:26.709Z,9.83
2019-03-23T08:45:26.699Z,9.91
2019-03-23T08:46:26.690Z,9.91
2019-03-23T08:47:26.681Z,9.87
2019-03-23T08:48:26.713Z,9.95
2019-03-23T08:49:28.621Z,9.94
2019-03-23T08:50:26.654Z,9.94
2019-03-23T08:51:26.644Z,9.89
2019-03-23T08:52:28.862Z,9.89
2019-03-23T08:53:26.626Z,9.86
2019-03-23T08:54:26.617Z,9.99
2019-03-23T08:55:26.609Z,10.01
2019-03-23T08:56:26.600Z,10.15
2019-03-23T08:57:26.590Z,10.09
2019-03-23T08:58:26.582Z,10.23
2019-03-23T08:59:26.575Z,10.17
2019-03-23T09:00:26.566Z,10.12
2019-03-23T09:01:26.555Z,10.13
2019-03-23T09:02:26.547Z,10.22
2019-03-23T09:03:26.539Z,10.23
2019-03-23T09:04:26.530Z,10.28
2019-03-23T09:05:26.522Z,10.40
2019-03-23T09:06:26.514Z,10.48
2019-03-23T09:07:26.548Z,10.53
2019-03-23T09:08:26.500Z,10.48
2019-03-23T09:09:26.493Z,10.56
2019-03-23T09:10:26.479Z,10.53
2019-03-23T09:11:26.472Z,10.51
2019-03-23T09:12:26.466Z,10.56
2019-03-23T09:13:26.455Z,10.59
2019-03-23T09:14:26.446Z,10.68
2019-03-23T09:15:26.439Z,10.63
2019-03-23T09:16:26.430Z,10.53
2019-03-23T09:17:26.421Z,10.63
2019-03-23T09:18:26.413Z,10.51
2019-03-23T09:19:26.405Z,10.51
2019-03-23T09:20:26.400Z,10.57
2019-03-23T09:21:26.389Z,10.74
2019-03-23T09:22:26.381Z,10.69
2019-03-23T09:23:26.373Z,10.76
2019-03-23T09:24:26.405Z,10.86
2019-03-23T09:25:26.356Z,10.76
2019-03-23T09:26:26.348Z,10.92
2019-03-23T09:27:26.341Z,10.99
2019-03-23T09:28:26.333Z,11.02
2019-03-23T09:29:26.324Z,10.97
2019-03-23T09:30:26.316Z,10.76
2019-03-23T09:31:26.310Z,10.78
2019-03-23T09:32:26.301Z,10.81
2019-03-23T09:33:26.297Z,10.79
2019-03-23T09:34:26.338Z,10.82
2019-03-23T09:35:26.280Z,10.87
2019-03-23T09:36:26.270Z,10.87
2019-03-23T09:37:26.262Z,10.86
2019-03-23T09:38:26.253Z,10.71
2019-03-23T09:39:26.246Z,10.59
2019-03-23T09:40:26.238Z,10.54
2019-03-23T09:41:26.233Z,10.59
2019-03-23T09:42:26.221Z,10.56
2019-03-23T09:43:26.215Z,10.60
2019-03-23T09:44:26.210Z,10.68
2019-03-23T09:45:26.197Z,10.71
2019-03-23T09:46:26.190Z,10.76
2019-03-23T09:47:26.225Z,10.82
2019-03-23T09:48:26.179Z,10.74
2019-03-23T09:49:26.165Z,10.81
2019-03-23T09:50:26.159Z,10.84
2019-03-23T09:51:26.149Z,10.87
2019-03-23T09:52:26.141Z,10.87
2019-03-23T09:53:26.135Z,10.90
2019-03-23T09:54:26.124Z,10.97
2019-03-23T09:55:28.490Z,10.94
2019-03-23T09:56:26.109Z,10.96
2019-03-23T09:57:26.100Z,10.96
2019-03-23T09:58:26.092Z,11.04
2019-03-23T09:59:26.085Z,11.00
2019-03-23T10:00:26.078Z,10.92
2019-03-23T10:01:26.070Z,10.90
2019-03-23T10:02:26.060Z,11.00
2019-03-23T10:03:26.052Z,10.96
2019-03-23T10:04:26.044Z,10.94
2019-03-23T10:05:26.039Z,10.79
2019-03-23T10:06:26.029Z,10.90
2019-03-23T10:07:26.022Z,10.71
2019-03-23T10:08:26.012Z,10.69
2019-03-23T10:09:26.004Z,10.69
2019-03-23T10:10:25.999Z,10.76
2019-03-23T10:11:25.990Z,10.79
2019-03-23T10:12:25.979Z,10.81
2019-03-23T10:13:25.971Z,10.84
2019-03-23T10:14:25.970Z,10.84
2019-03-23T10:15:25.959Z,10.86
2019-03-23T10:16:25.947Z,10.90
2019-03-23T10:17:25.952Z,10.97
2019-03-23T10:18:25.942Z,10.84
2019-03-23T10:19:25.927Z,10.74
2019-03-23T10:20:25.922Z,10.67
2019-03-23T10:21:25.903Z,10.67
2019-03-23T10:22:25.899Z,10.67
2019-03-23T10:23:25.915Z,10.71
2019-03-23T10:24:25.882Z,10.72
2019-03-23T10:25:25.873Z,10.74
2019-03-23T10:26:25.863Z,10.93
2019-03-23T10:27:25.854Z,10.93
2019-03-23T10:28:25.846Z,10.97
2019-03-23T10:29:25.835Z,11.00
2019-03-23T10:30:25.832Z,11.11
2019-03-23T10:31:25.825Z,11.12
2019-03-23T10:32:25.812Z,11.22
2019-03-23T10:33:25.802Z,11.26
2019-03-23T10:34:25.793Z,11.33
2019-03-23T10:35:25.786Z,11.51
2019-03-23T10:36:25.777Z,11.66
2019-03-23T10:37:26.155Z,11.90
2019-03-23T10:38:25.762Z,12.17
2019-03-23T10:39:25.754Z,12.46
2019-03-23T10:40:32.346Z,12.68
2019-03-23T10:41:25.739Z,12.90
2019-03-23T10:42:25.732Z,13.00
2019-03-23T10:43:25.733Z,13.22
2019-03-23T10:44:25.721Z,13.28
2019-03-23T10:45:25.719Z,13.37
2019-03-23T10:46:25.708Z,13.38
2019-03-23T10:47:25.759Z,13.31
2019-03-23T10:48:25.707Z,13.52
2019-03-23T10:49:25.692Z,13.50
2019-03-23T10:50:25.689Z,13.44
2019-03-23T10:51:25.683Z,13.52
2019-03-23T10:52:25.678Z,13.50
2019-03-23T10:53:25.673Z,13.75
2019-03-23T10:54:25.668Z,13.60
2019-03-23T10:55:25.664Z,13.71
2019-03-23T10:56:25.663Z,13.47
2019-03-23T10:57:25.655Z,13.27
2019-03-23T10:58:25.651Z,13.42
2019-03-23T10:59:25.647Z,13.46
2019-03-23T11:00:25.701Z,13.54
2019-03-23T11:01:25.658Z,13.46
2019-03-23T11:02:25.633Z,13.52
2019-03-23T11:03:25.639Z,13.63
2019-03-23T11:04:25.635Z,13.47
2019-03-23T11:05:25.622Z,13.16
2019-03-23T11:06:25.615Z,13.15
2019-03-23T11:07:25.611Z,13.27
2019-03-23T11:08:25.605Z,13.25
2019-03-23T11:09:25.600Z,13.30
2019-03-23T11:10:25.595Z,13.31
2019-03-23T11:11:25.591Z,13.22
2019-03-23T11:12:25.586Z,13.23
2019-03-23T11:13:25.579Z,13.12
2019-03-23T11:14:25.576Z,13.15
2019-03-23T11:15:25.570Z,12.98
2019-03-23T11:16:25.566Z,12.87
2019-03-23T11:17:25.560Z,12.85
2019-03-23T11:18:25.555Z,12.86
2019-03-23T11:19:25.550Z,12.86
2019-03-23T11:20:25.546Z,12.93
2019-03-23T11:21:25.540Z,12.98
2019-03-23T11:22:25.535Z,13.15
2019-03-23T11:23:25.530Z,13.27
2019-03-23T11:24:25.525Z,13.33
2019-03-23T11:25:25.519Z,13.37
2019-03-23T11:26:25.516Z,13.39
2019-03-23T11:27:25.511Z,13.52
2019-03-23T11:28:25.511Z,13.75
2019-03-23T11:29:25.506Z,14.05
2019-03-23T11:30:25.498Z,14.22
2019-03-23T11:31:25.494Z,14.04
2019-03-23T11:32:25.489Z,14.03
2019-03-23T11:33:25.484Z,14.23
2019-03-23T11:34:25.480Z,13.93
2019-03-23T11:35:25.477Z,13.70
2019-03-23T11:36:25.472Z,13.65
2019-03-23T11:37:25.624Z,13.44
2019-03-23T11:38:25.464Z,13.19
2019-03-23T11:39:25.458Z,13.09
2019-03-23T11:40:25.452Z,12.86
2019-03-23T11:41:25.448Z,12.90
2019-03-23T11:42:25.443Z,13.00
2019-03-23T11:43:25.437Z,12.97
2019-03-23T11:44:25.456Z,13.01
2019-03-23T11:45:25.425Z,13.12
2019-03-23T11:46:25.423Z,12.97
2019-03-23T11:47:25.414Z,13.12
2019-03-23T11:48:25.414Z,13.22
2019-03-23T11:49:25.430Z,13.31
2019-03-23T11:50:25.397Z,13.27
2019-03-23T11:51:25.391Z,13.13
2019-03-23T11:52:25.385Z,13.08
2019-03-23T11:53:25.381Z,13.05
2019-03-23T11:54:25.377Z,13.09
2019-03-23T11:55:25.374Z,13.05
2019-03-23T11:56:25.367Z,13.11
2019-03-23T11:57:25.356Z,13.11
2019-03-23T11:58:25.350Z,13.04
2019-03-23T11:59:25.343Z,12.98
2019-03-23T12:00:25.337Z,12.94
2019-03-23T12:01:25.330Z,12.91
2019-03-23T12:02:25.325Z,12.93
2019-03-23T12:03:25.318Z,13.05
2019-03-23T12:04:25.389Z,13.09
2019-03-23T12:05:25.305Z,13.01
2019-03-23T12:06:25.298Z,13.04
2019-03-23T12:07:25.292Z,13.01
2019-03-23T12:08:25.287Z,13.00
2019-03-23T12:09:25.289Z,12.98
2019-03-23T12:10:25.276Z,13.20
2019-03-23T12:11:25.266Z,13.12
2019-03-23T12:12:25.260Z,13.16
2019-03-23T12:13:25.253Z,13.28
2019-03-23T12:14:25.322Z,13.27
2019-03-23T12:15:25.240Z,13.23
2019-03-23T12:16:25.234Z,13.08
2019-03-23T12:17:25.229Z,13.13
2019-03-23T12:18:25.221Z,13.11
2019-03-23T12:19:25.214Z,12.98
2019-03-23T12:20:25.208Z,12.90
2019-03-23T12:21:25.200Z,12.82
2019-03-23T12:22:25.194Z,12.55
2019-03-23T12:23:25.187Z,12.55
2019-03-23T12:24:25.183Z,12.65
2019-03-23T12:25:25.176Z,12.60
2019-03-23T12:26:25.167Z,12.64
2019-03-23T12:27:25.161Z,12.46
2019-03-23T12:28:25.153Z,12.47
2019-03-23T12:29:25.200Z,12.54
2019-03-23T12:30:25.139Z,12.55
2019-03-23T12:31:25.132Z,12.57
2019-03-23T12:32:25.125Z,12.79
2019-03-23T12:33:25.121Z,12.86
2019-03-23T12:34:25.113Z,12.85
2019-03-23T12:35:25.105Z,12.83
2019-03-23T12:36:25.098Z,12.50
2019-03-23T12:37:25.090Z,12.47
2019-03-23T12:38:25.085Z,12.42
2019-03-23T12:39:25.076Z,12.32
2019-03-23T12:40:25.074Z,12.42
2019-03-23T12:41:25.061Z,12.31
2019-03-23T12:42:25.054Z,12.29
2019-03-23T12:43:25.050Z,12.21
2019-03-23T12:44:25.042Z,12.24
2019-03-23T12:45:25.033Z,12.24
2019-03-23T12:46:25.026Z,12.35
2019-03-23T12:47:25.020Z,12.45
2019-03-23T12:48:25.015Z,12.40
2019-03-23T12:49:25.003Z,12.54
2019-03-23T12:50:24.995Z,12.79
2019-03-23T12:51:24.989Z,12.80
2019-03-23T12:52:24.982Z,12.86
2019-03-23T12:53:24.976Z,12.83
2019-03-23T12:54:24.968Z,12.87
2019-03-23T12:55:24.960Z,12.86
2019-03-23T12:56:24.953Z,12.76
2019-03-23T12:57:24.946Z,12.85
2019-03-23T12:58:24.939Z,12.62
2019-03-23T12:59:24.931Z,12.64
2019-03-23T13:00:24.952Z,12.65
2019-03-23T13:01:24.917Z,12.67
2019-03-23T13:02:24.909Z,12.75
2019-03-23T13:03:24.902Z,12.80
2019-03-23T13:04:24.895Z,12.85
2019-03-23T13:05:24.893Z,12.68
2019-03-23T13:06:24.881Z,12.70
2019-03-23T13:07:24.875Z,12.64
2019-03-23T13:08:24.866Z,12.55
2019-03-23T13:09:24.861Z,12.55